sensor_id;sensor_type;location;lat;lon;timestamp;P1;durP1;ratioP1;P2;durP2;ratioP2
49764;SDS011;35657;51.204;-4.130;2023-05-09T00:01:16;2.72;;;1.10;;
49764;SDS011;35657;51.204;-4.130;2023-05-09T00:03:43;4.07;;;1.17;;
49764;SDS011;35657;51.204;-4.130;2023-05-09T00:06:09;8.20;;;1.25;;
49764;SDS011;35657;51.204;-4.130;2023-05-09T00:08:35;6.43;;;1.08;;
49764;SDS011;35657;51.204;-4.130;2023-05-09T00:11:02;6.57;;;1.35;;
49764;SDS011;35657;51.204;-4.130;2023-05-09T00:13:27;7.40;;;1.70;;
49764;SDS011;35657;51.204;-4.130;2023-05-09T00:15:53;4.95;;;1.30;;
49764;SDS011;35657;51.204;-4.130;2023-05-09T00:18:21;5.65;;;1.40;;
49764;SDS011;35657;51.204;-4.130;2023-05-09T00:20:47;6.72;;;2.03;;
49764;SDS011;35657;51.204;-4.130;2023-05-09T00:23:14;3.58;;;1.63;;
49764;SDS011;35657;51.204;-4.130;2023-05-09T00:25:40;9.88;;;1.60;;
49764;SDS011;35657;51.204;-4.130;2023-05-09T00:28:06;5.97;;;1.40;;
49764;SDS011;35657;51.204;-4.130;2023-05-09T00:30:32;9.65;;;1.30;;
49764;SDS011;35657;51.204;-4.130;2023-05-09T00:32:58;2.28;;;1.40;;
49764;SDS011;35657;51.204;-4.130;2023-05-09T00:35:24;7.68;;;1.55;;
49764;SDS011;35657;51.204;-4.130;2023-05-09T00:37:49;15.60;;;1.75;;
49764;SDS011;35657;51.204;-4.130;2023-05-09T00:40:15;2.75;;;1.25;;
49764;SDS011;35657;51.204;-4.130;2023-05-09T00:42:40;6.00;;;1.33;;
49764;SDS011;35657;51.204;-4.130;2023-05-09T00:45:06;0.98;;;0.50;;
49764;SDS011;35657;51.204;-4.130;2023-05-09T00:47:33;2.13;;;0.90;;
49764;SDS011;35657;51.204;-4.130;2023-05-09T00:50:00;2.08;;;1.00;;
49764;SDS011;35657;51.204;-4.130;2023-05-09T00:52:26;5.13;;;1.65;;
49764;SDS011;35657;51.204;-4.130;2023-05-09T00:54:52;1.98;;;1.08;;
49764;SDS011;35657;51.204;-4.130;2023-05-09T00:57:18;3.83;;;1.08;;
49764;SDS011;35657;51.204;-4.130;2023-05-09T00:59:44;1.60;;;0.88;;
49764;SDS011;35657;51.204;-4.130;2023-05-09T01:02:10;2.28;;;1.35;;
49764;SDS011;35657;51.204;-4.130;2023-05-09T01:04:36;5.95;;;0.80;;
49764;SDS011;35657;51.204;-4.130;2023-05-09T01:07:45;11.73;;;1.65;;
49764;SDS011;35657;51.204;-4.130;2023-05-09T01:12:59;4.40;;;0.60;;
49764;SDS011;35657;51.204;-4.130;2023-05-09T01:15:44;1.10;;;0.50;;
49764;SDS011;35657;51.204;-4.130;2023-05-09T01:18:25;3.28;;;0.70;;
49764;SDS011;35657;51.204;-4.130;2023-05-09T01:21:36;4.90;;;0.85;;
49764;SDS011;35657;51.204;-4.130;2023-05-09T01:23:58;1.88;;;0.60;;
49764;SDS011;35657;51.204;-4.130;2023-05-09T01:26:51;0.93;;;0.50;;
49764;SDS011;35657;51.204;-4.130;2023-05-09T01:29:49;1.35;;;0.50;;
49764;SDS011;35657;51.204;-4.130;2023-05-09T01:32:23;0.63;;;0.43;;
49764;SDS011;35657;51.204;-4.130;2023-05-09T01:34:54;2.67;;;0.50;;
49764;SDS011;35657;51.204;-4.130;2023-05-09T01:37:27;1.45;;;0.45;;
49764;SDS011;35657;51.204;-4.130;2023-05-09T01:39:56;0.98;;;0.50;;
49764;SDS011;35657;51.204;-4.130;2023-05-09T01:42:27;0.95;;;0.57;;
49764;SDS011;35657;51.204;-4.130;2023-05-09T01:44:57;1.10;;;0.55;;
49764;SDS011;35657;51.204;-4.130;2023-05-09T01:47:24;0.68;;;0.50;;
49764;SDS011;35657;51.204;-4.130;2023-05-09T01:49:51;1.65;;;0.47;;
49764;SDS011;35657;51.204;-4.130;2023-05-09T01:52:19;0.65;;;0.32;;
49764;SDS011;35657;51.204;-4.130;2023-05-09T01:54:46;0.60;;;0.50;;
49764;SDS011;35657;51.204;-4.130;2023-05-09T01:57:14;1.33;;;0.82;;
49764;SDS011;35657;51.204;-4.130;2023-05-09T01:59:43;0.32;;;0.30;;
49764;SDS011;35657;51.204;-4.130;2023-05-09T02:02:09;3.90;;;0.40;;
49764;SDS011;35657;51.204;-4.130;2023-05-09T02:04:36;3.50;;;0.60;;
49764;SDS011;35657;51.204;-4.130;2023-05-09T02:07:03;1.25;;;0.52;;
49764;SDS011;35657;51.204;-4.130;2023-05-09T02:09:30;2.88;;;1.10;;
49764;SDS011;35657;51.204;-4.130;2023-05-09T02:11:56;2.80;;;0.70;;
49764;SDS011;35657;51.204;-4.130;2023-05-09T02:14:21;6.25;;;1.17;;
49764;SDS011;35657;51.204;-4.130;2023-05-09T02:16:47;8.73;;;1.30;;
49764;SDS011;35657;51.204;-4.130;2023-05-09T02:19:13;3.55;;;0.70;;
49764;SDS011;35657;51.204;-4.130;2023-05-09T02:21:40;8.15;;;2.38;;
49764;SDS011;35657;51.204;-4.130;2023-05-09T02:24:06;9.95;;;1.30;;
49764;SDS011;35657;51.204;-4.130;2023-05-09T02:26:32;9.40;;;1.20;;
49764;SDS011;35657;51.204;-4.130;2023-05-09T02:28:59;3.15;;;0.90;;
49764;SDS011;35657;51.204;-4.130;2023-05-09T02:31:27;6.10;;;1.38;;
49764;SDS011;35657;51.204;-4.130;2023-05-09T02:33:54;17.48;;;1.58;;
49764;SDS011;35657;51.204;-4.130;2023-05-09T02:36:21;22.23;;;1.85;;
49764;SDS011;35657;51.204;-4.130;2023-05-09T02:38:47;7.15;;;1.33;;
49764;SDS011;35657;51.204;-4.130;2023-05-09T02:41:14;20.35;;;2.83;;
49764;SDS011;35657;51.204;-4.130;2023-05-09T02:43:40;13.40;;;1.75;;
49764;SDS011;35657;51.204;-4.130;2023-05-09T02:46:07;7.65;;;1.55;;
49764;SDS011;35657;51.204;-4.130;2023-05-09T02:48:33;15.82;;;1.98;;
49764;SDS011;35657;51.204;-4.130;2023-05-09T02:51:00;12.27;;;2.08;;
49764;SDS011;35657;51.204;-4.130;2023-05-09T02:53:25;5.32;;;1.33;;
49764;SDS011;35657;51.204;-4.130;2023-05-09T02:55:51;3.28;;;1.23;;
49764;SDS011;35657;51.204;-4.130;2023-05-09T02:58:18;5.97;;;1.60;;
49764;SDS011;35657;51.204;-4.130;2023-05-09T03:00:44;2.90;;;1.58;;
49764;SDS011;35657;51.204;-4.130;2023-05-09T03:03:10;8.57;;;1.52;;
49764;SDS011;35657;51.204;-4.130;2023-05-09T03:05:35;5.32;;;1.58;;
49764;SDS011;35657;51.204;-4.130;2023-05-09T03:08:01;2.30;;;1.02;;
49764;SDS011;35657;51.204;-4.130;2023-05-09T03:10:27;5.15;;;2.38;;
49764;SDS011;35657;51.204;-4.130;2023-05-09T03:12:52;7.95;;;1.60;;
49764;SDS011;35657;51.204;-4.130;2023-05-09T03:15:18;6.68;;;1.95;;
49764;SDS011;35657;51.204;-4.130;2023-05-09T03:17:45;8.02;;;1.48;;
49764;SDS011;35657;51.204;-4.130;2023-05-09T03:20:11;5.75;;;1.38;;
49764;SDS011;35657;51.204;-4.130;2023-05-09T03:22:37;2.30;;;1.33;;
49764;SDS011;35657;51.204;-4.130;2023-05-09T03:25:03;4.20;;;1.48;;
49764;SDS011;35657;51.204;-4.130;2023-05-09T03:27:30;11.73;;;2.85;;
49764;SDS011;35657;51.204;-4.130;2023-05-09T03:29:56;3.58;;;1.23;;
49764;SDS011;35657;51.204;-4.130;2023-05-09T03:32:21;6.43;;;1.40;;
49764;SDS011;35657;51.204;-4.130;2023-05-09T03:34:47;9.88;;;1.55;;
49764;SDS011;35657;51.204;-4.130;2023-05-09T03:37:13;4.47;;;1.55;;
49764;SDS011;35657;51.204;-4.130;2023-05-09T03:39:39;5.78;;;1.70;;
49764;SDS011;35657;51.204;-4.130;2023-05-09T03:42:05;2.10;;;1.20;;
49764;SDS011;35657;51.204;-4.130;2023-05-09T03:44:31;1.80;;;1.17;;
49764;SDS011;35657;51.204;-4.130;2023-05-09T03:46:56;3.58;;;1.65;;
49764;SDS011;35657;51.204;-4.130;2023-05-09T03:49:22;3.47;;;1.38;;
49764;SDS011;35657;51.204;-4.130;2023-05-09T03:51:48;3.38;;;1.42;;
49764;SDS011;35657;51.204;-4.130;2023-05-09T03:54:13;3.35;;;2.03;;
49764;SDS011;35657;51.204;-4.130;2023-05-09T03:56:40;2.70;;;1.23;;
49764;SDS011;35657;51.204;-4.130;2023-05-09T03:59:05;3.20;;;1.20;;
49764;SDS011;35657;51.204;-4.130;2023-05-09T04:01:31;2.65;;;1.60;;
49764;SDS011;35657;51.204;-4.130;2023-05-09T04:03:57;1.83;;;1.20;;
49764;SDS011;35657;51.204;-4.130;2023-05-09T04:06:22;3.67;;;1.52;;
49764;SDS011;35657;51.204;-4.130;2023-05-09T04:08:48;3.90;;;1.65;;
49764;SDS011;35657;51.204;-4.130;2023-05-09T04:11:14;2.97;;;1.25;;
49764;SDS011;35657;51.204;-4.130;2023-05-09T04:13:40;3.10;;;1.83;;
49764;SDS011;35657;51.204;-4.130;2023-05-09T04:16:05;3.42;;;1.40;;
49764;SDS011;35657;51.204;-4.130;2023-05-09T04:18:31;2.67;;;1.52;;
49764;SDS011;35657;51.204;-4.130;2023-05-09T04:20:57;5.03;;;2.03;;
49764;SDS011;35657;51.204;-4.130;2023-05-09T04:23:23;2.95;;;1.55;;
49764;SDS011;35657;51.204;-4.130;2023-05-09T04:25:48;7.53;;;2.05;;
49764;SDS011;35657;51.204;-4.130;2023-05-09T04:28:18;3.47;;;1.50;;
49764;SDS011;35657;51.204;-4.130;2023-05-09T04:30:43;3.20;;;1.48;;
49764;SDS011;35657;51.204;-4.130;2023-05-09T04:33:09;4.32;;;1.15;;
49764;SDS011;35657;51.204;-4.130;2023-05-09T04:35:35;2.88;;;1.00;;
49764;SDS011;35657;51.204;-4.130;2023-05-09T04:38:02;1.70;;;0.93;;
49764;SDS011;35657;51.204;-4.130;2023-05-09T04:40:28;2.03;;;0.70;;
49764;SDS011;35657;51.204;-4.130;2023-05-09T04:42:54;2.80;;;1.10;;
49764;SDS011;35657;51.204;-4.130;2023-05-09T04:45:21;3.10;;;1.40;;
49764;SDS011;35657;51.204;-4.130;2023-05-09T04:47:47;4.25;;;1.38;;
49764;SDS011;35657;51.204;-4.130;2023-05-09T04:50:13;2.60;;;1.45;;
49764;SDS011;35657;51.204;-4.130;2023-05-09T04:52:40;4.28;;;0.93;;
49764;SDS011;35657;51.204;-4.130;2023-05-09T04:55:06;1.10;;;0.80;;
49764;SDS011;35657;51.204;-4.130;2023-05-09T04:57:32;1.38;;;0.75;;
49764;SDS011;35657;51.204;-4.130;2023-05-09T04:59:57;2.10;;;0.80;;
49764;SDS011;35657;51.204;-4.130;2023-05-09T05:02:23;1.30;;;0.63;;
49764;SDS011;35657;51.204;-4.130;2023-05-09T05:04:49;1.73;;;0.52;;
49764;SDS011;35657;51.204;-4.130;2023-05-09T05:07:15;2.05;;;0.60;;
49764;SDS011;35657;51.204;-4.130;2023-05-09T05:09:41;0.32;;;0.28;;
49764;SDS011;35657;51.204;-4.130;2023-05-09T05:12:07;0.35;;;0.30;;
49764;SDS011;35657;51.204;-4.130;2023-05-09T05:14:33;0.30;;;0.28;;
49764;SDS011;35657;51.204;-4.130;2023-05-09T05:16:59;0.35;;;0.30;;
49764;SDS011;35657;51.204;-4.130;2023-05-09T05:19:25;0.38;;;0.30;;
49764;SDS011;35657;51.204;-4.130;2023-05-09T05:21:51;0.63;;;0.30;;
49764;SDS011;35657;51.204;-4.130;2023-05-09T05:24:16;2.75;;;0.50;;
49764;SDS011;35657;51.204;-4.130;2023-05-09T05:26:42;2.15;;;0.52;;
49764;SDS011;35657;51.204;-4.130;2023-05-09T05:29:08;2.08;;;0.50;;
49764;SDS011;35657;51.204;-4.130;2023-05-09T05:31:33;5.18;;;0.43;;
49764;SDS011;35657;51.204;-4.130;2023-05-09T05:34:00;1.38;;;0.30;;
49764;SDS011;35657;51.204;-4.130;2023-05-09T05:36:26;0.30;;;0.25;;
49764;SDS011;35657;51.204;-4.130;2023-05-09T05:38:51;2.08;;;0.50;;
49764;SDS011;35657;51.204;-4.130;2023-05-09T05:41:17;1.85;;;0.30;;
49764;SDS011;35657;51.204;-4.130;2023-05-09T05:43:42;2.92;;;0.70;;
49764;SDS011;35657;51.204;-4.130;2023-05-09T05:46:08;2.13;;;1.27;;
49764;SDS011;35657;51.204;-4.130;2023-05-09T05:48:34;2.95;;;1.73;;
49764;SDS011;35657;51.204;-4.130;2023-05-09T05:51:00;1.73;;;1.20;;
49764;SDS011;35657;51.204;-4.130;2023-05-09T05:53:25;4.75;;;3.25;;
49764;SDS011;35657;51.204;-4.130;2023-05-09T05:55:51;3.17;;;2.05;;
49764;SDS011;35657;51.204;-4.130;2023-05-09T05:58:17;2.15;;;1.52;;
49764;SDS011;35657;51.204;-4.130;2023-05-09T06:00:42;3.40;;;2.35;;
49764;SDS011;35657;51.204;-4.130;2023-05-09T06:03:08;3.20;;;1.85;;
49764;SDS011;35657;51.204;-4.130;2023-05-09T06:05:40;2.90;;;1.63;;
49764;SDS011;35657;51.204;-4.130;2023-05-09T06:08:10;3.03;;;1.73;;
49764;SDS011;35657;51.204;-4.130;2023-05-09T06:10:36;1.63;;;0.95;;
49764;SDS011;35657;51.204;-4.130;2023-05-09T06:13:01;2.15;;;1.17;;
49764;SDS011;35657;51.204;-4.130;2023-05-09T06:15:27;2.45;;;1.52;;
49764;SDS011;35657;51.204;-4.130;2023-05-09T06:17:53;1.23;;;0.80;;
49764;SDS011;35657;51.204;-4.130;2023-05-09T06:20:19;1.45;;;1.20;;
49764;SDS011;35657;51.204;-4.130;2023-05-09T06:22:44;1.30;;;1.00;;
49764;SDS011;35657;51.204;-4.130;2023-05-09T06:25:10;1.75;;;1.13;;
49764;SDS011;35657;51.204;-4.130;2023-05-09T06:27:35;1.05;;;0.65;;
49764;SDS011;35657;51.204;-4.130;2023-05-09T06:30:01;0.63;;;0.40;;
49764;SDS011;35657;51.204;-4.130;2023-05-09T06:32:27;0.70;;;0.60;;
49764;SDS011;35657;51.204;-4.130;2023-05-09T06:34:53;0.50;;;0.40;;
49764;SDS011;35657;51.204;-4.130;2023-05-09T06:37:19;0.60;;;0.32;;
49764;SDS011;35657;51.204;-4.130;2023-05-09T06:39:44;1.25;;;0.63;;
49764;SDS011;35657;51.204;-4.130;2023-05-09T06:42:10;1.00;;;0.52;;
49764;SDS011;35657;51.204;-4.130;2023-05-09T06:44:36;1.05;;;0.70;;
49764;SDS011;35657;51.204;-4.130;2023-05-09T06:47:01;0.70;;;0.50;;
49764;SDS011;35657;51.204;-4.130;2023-05-09T06:49:27;1.33;;;0.60;;
49764;SDS011;35657;51.204;-4.130;2023-05-09T06:51:53;0.82;;;0.40;;
49764;SDS011;35657;51.204;-4.130;2023-05-09T06:54:18;0.85;;;0.50;;
49764;SDS011;35657;51.204;-4.130;2023-05-09T06:56:44;2.03;;;0.75;;
49764;SDS011;35657;51.204;-4.130;2023-05-09T06:59:09;2.97;;;0.88;;
49764;SDS011;35657;51.204;-4.130;2023-05-09T07:01:40;1.75;;;0.70;;
49764;SDS011;35657;51.204;-4.130;2023-05-09T07:04:06;1.58;;;0.90;;
49764;SDS011;35657;51.204;-4.130;2023-05-09T07:06:32;2.88;;;0.93;;
49764;SDS011;35657;51.204;-4.130;2023-05-09T07:08:57;3.88;;;1.40;;
49764;SDS011;35657;51.204;-4.130;2023-05-09T07:11:23;7.25;;;2.08;;
49764;SDS011;35657;51.204;-4.130;2023-05-09T07:13:49;2.72;;;1.50;;
49764;SDS011;35657;51.204;-4.130;2023-05-09T07:16:15;2.30;;;1.20;;
49764;SDS011;35657;51.204;-4.130;2023-05-09T07:18:42;3.38;;;1.65;;
49764;SDS011;35657;51.204;-4.130;2023-05-09T07:21:08;3.20;;;1.27;;
49764;SDS011;35657;51.204;-4.130;2023-05-09T07:23:34;7.32;;;2.03;;
49764;SDS011;35657;51.204;-4.130;2023-05-09T07:25:59;4.65;;;1.70;;
49764;SDS011;35657;51.204;-4.130;2023-05-09T07:28:25;3.58;;;1.67;;
49764;SDS011;35657;51.204;-4.130;2023-05-09T07:30:51;2.35;;;1.30;;
49764;SDS011;35657;51.204;-4.130;2023-05-09T07:33:19;2.90;;;1.02;;
49764;SDS011;35657;51.204;-4.130;2023-05-09T07:35:44;3.70;;;1.52;;
49764;SDS011;35657;51.204;-4.130;2023-05-09T07:38:10;2.20;;;1.05;;
49764;SDS011;35657;51.204;-4.130;2023-05-09T07:40:36;5.75;;;1.17;;
49764;SDS011;35657;51.204;-4.130;2023-05-09T07:43:02;2.67;;;1.02;;
49764;SDS011;35657;51.204;-4.130;2023-05-09T07:45:28;2.35;;;1.10;;
49764;SDS011;35657;51.204;-4.130;2023-05-09T07:47:54;3.53;;;0.80;;
49764;SDS011;35657;51.204;-4.130;2023-05-09T07:50:20;0.77;;;0.57;;
49764;SDS011;35657;51.204;-4.130;2023-05-09T07:52:47;1.90;;;0.60;;
49764;SDS011;35657;51.204;-4.130;2023-05-09T07:55:13;0.65;;;0.47;;
49764;SDS011;35657;51.204;-4.130;2023-05-09T07:57:39;2.30;;;0.63;;
49764;SDS011;35657;51.204;-4.130;2023-05-09T08:00:05;1.88;;;0.98;;
49764;SDS011;35657;51.204;-4.130;2023-05-09T08:02:32;1.17;;;0.77;;
49764;SDS011;35657;51.204;-4.130;2023-05-09T08:04:58;2.67;;;1.10;;
49764;SDS011;35657;51.204;-4.130;2023-05-09T08:07:24;3.50;;;1.17;;
49764;SDS011;35657;51.204;-4.130;2023-05-09T08:09:50;4.22;;;1.05;;
49764;SDS011;35657;51.204;-4.130;2023-05-09T08:12:17;4.57;;;0.80;;
49764;SDS011;35657;51.204;-4.130;2023-05-09T08:14:42;1.80;;;0.88;;
49764;SDS011;35657;51.204;-4.130;2023-05-09T08:17:08;0.65;;;0.50;;
49764;SDS011;35657;51.204;-4.130;2023-05-09T08:19:34;1.90;;;0.70;;
49764;SDS011;35657;51.204;-4.130;2023-05-09T08:22:00;3.10;;;1.10;;
49764;SDS011;35657;51.204;-4.130;2023-05-09T08:24:26;2.10;;;0.80;;
49764;SDS011;35657;51.204;-4.130;2023-05-09T08:26:51;4.03;;;0.80;;
49764;SDS011;35657;51.204;-4.130;2023-05-09T08:29:17;3.95;;;0.85;;
49764;SDS011;35657;51.204;-4.130;2023-05-09T08:31:43;2.58;;;0.98;;
49764;SDS011;35657;51.204;-4.130;2023-05-09T08:34:08;2.00;;;0.77;;
49764;SDS011;35657;51.204;-4.130;2023-05-09T08:36:34;1.80;;;0.70;;
49764;SDS011;35657;51.204;-4.130;2023-05-09T08:39:00;1.25;;;0.50;;
49764;SDS011;35657;51.204;-4.130;2023-05-09T08:41:26;2.60;;;0.98;;
49764;SDS011;35657;51.204;-4.130;2023-05-09T08:43:52;1.00;;;0.60;;
49764;SDS011;35657;51.204;-4.130;2023-05-09T08:46:18;2.33;;;0.82;;
49764;SDS011;35657;51.204;-4.130;2023-05-09T08:48:49;1.08;;;0.55;;
49764;SDS011;35657;51.204;-4.130;2023-05-09T08:51:15;1.38;;;0.70;;
49764;SDS011;35657;51.204;-4.130;2023-05-09T08:53:41;1.60;;;0.60;;
49764;SDS011;35657;51.204;-4.130;2023-05-09T08:56:08;1.30;;;0.63;;
49764;SDS011;35657;51.204;-4.130;2023-05-09T08:58:34;0.88;;;0.50;;
49764;SDS011;35657;51.204;-4.130;2023-05-09T09:01:01;0.70;;;0.60;;
49764;SDS011;35657;51.204;-4.130;2023-05-09T09:03:31;1.10;;;0.63;;
49764;SDS011;35657;51.204;-4.130;2023-05-09T09:05:57;1.30;;;0.52;;
49764;SDS011;35657;51.204;-4.130;2023-05-09T09:08:24;1.48;;;0.80;;
49764;SDS011;35657;51.204;-4.130;2023-05-09T09:10:51;0.80;;;0.50;;
49764;SDS011;35657;51.204;-4.130;2023-05-09T09:13:17;1.15;;;0.70;;
49764;SDS011;35657;51.204;-4.130;2023-05-09T09:15:45;2.67;;;0.93;;
49764;SDS011;35657;51.204;-4.130;2023-05-09T09:18:24;1.88;;;0.80;;
49764;SDS011;35657;51.204;-4.130;2023-05-09T09:20:57;1.20;;;0.73;;
49764;SDS011;35657;51.204;-4.130;2023-05-09T09:23:28;2.63;;;0.90;;
49764;SDS011;35657;51.204;-4.130;2023-05-09T09:25:57;2.13;;;0.50;;
49764;SDS011;35657;51.204;-4.130;2023-05-09T09:28:28;2.22;;;0.70;;
49764;SDS011;35657;51.204;-4.130;2023-05-09T09:30:54;1.58;;;0.77;;
49764;SDS011;35657;51.204;-4.130;2023-05-09T09:33:21;2.25;;;0.90;;
49764;SDS011;35657;51.204;-4.130;2023-05-09T09:35:48;4.20;;;1.10;;
49764;SDS011;35657;51.204;-4.130;2023-05-09T09:38:16;1.60;;;0.73;;
49764;SDS011;35657;51.204;-4.130;2023-05-09T09:40:56;1.38;;;0.90;;
49764;SDS011;35657;51.204;-4.130;2023-05-09T09:43:26;1.33;;;0.70;;
49764;SDS011;35657;51.204;-4.130;2023-05-09T09:45:55;1.63;;;0.73;;
49764;SDS011;35657;51.204;-4.130;2023-05-09T09:48:25;2.10;;;0.90;;
49764;SDS011;35657;51.204;-4.130;2023-05-09T09:50:54;2.20;;;0.85;;
49764;SDS011;35657;51.204;-4.130;2023-05-09T09:53:20;0.93;;;0.60;;
49764;SDS011;35657;51.204;-4.130;2023-05-09T09:55:48;0.70;;;0.60;;
49764;SDS011;35657;51.204;-4.130;2023-05-09T09:58:18;0.90;;;0.70;;
49764;SDS011;35657;51.204;-4.130;2023-05-09T10:03:36;3.92;;;0.80;;
49764;SDS011;35657;51.204;-4.130;2023-05-09T10:06:13;2.80;;;1.00;;
49764;SDS011;35657;51.204;-4.130;2023-05-09T10:08:40;6.90;;;1.10;;
49764;SDS011;35657;51.204;-4.130;2023-05-09T10:11:07;1.40;;;0.90;;
49764;SDS011;35657;51.204;-4.130;2023-05-09T10:13:34;2.88;;;1.00;;
49764;SDS011;35657;51.204;-4.130;2023-05-09T10:16:01;2.92;;;1.08;;
49764;SDS011;35657;51.204;-4.130;2023-05-09T10:18:28;3.13;;;0.90;;
49764;SDS011;35657;51.204;-4.130;2023-05-09T10:20:55;5.85;;;1.13;;
49764;SDS011;35657;51.204;-4.130;2023-05-09T10:23:25;4.38;;;0.88;;
49764;SDS011;35657;51.204;-4.130;2023-05-09T10:25:56;2.25;;;1.15;;
49764;SDS011;35657;51.204;-4.130;2023-05-09T10:28:24;7.10;;;1.35;;
49764;SDS011;35657;51.204;-4.130;2023-05-09T10:30:56;2.10;;;1.00;;
49764;SDS011;35657;51.204;-4.130;2023-05-09T10:33:30;3.70;;;2.08;;
49764;SDS011;35657;51.204;-4.130;2023-05-09T10:36:02;3.83;;;0.95;;
49764;SDS011;35657;51.204;-4.130;2023-05-09T10:38:29;2.08;;;0.98;;
49764;SDS011;35657;51.204;-4.130;2023-05-09T10:40:55;2.45;;;1.30;;
49764;SDS011;35657;51.204;-4.130;2023-05-09T10:43:21;2.35;;;1.27;;
49764;SDS011;35657;51.204;-4.130;2023-05-09T10:45:49;4.15;;;0.93;;
49764;SDS011;35657;51.204;-4.130;2023-05-09T10:48:15;3.67;;;0.73;;
49764;SDS011;35657;51.204;-4.130;2023-05-09T10:50:42;6.97;;;1.17;;
49764;SDS011;35657;51.204;-4.130;2023-05-09T10:53:09;4.72;;;1.58;;
49764;SDS011;35657;51.204;-4.130;2023-05-09T10:55:53;2.55;;;1.10;;
49764;SDS011;35657;51.204;-4.130;2023-05-09T11:00:58;4.05;;;1.35;;
49764;SDS011;35657;51.204;-4.130;2023-05-09T11:03:25;3.63;;;1.58;;
49764;SDS011;35657;51.204;-4.130;2023-05-09T11:05:52;5.60;;;1.17;;
49764;SDS011;35657;51.204;-4.130;2023-05-09T11:08:23;1.48;;;1.10;;
49764;SDS011;35657;51.204;-4.130;2023-05-09T11:10:57;3.67;;;1.33;;
49764;SDS011;35657;51.204;-4.130;2023-05-09T11:13:31;5.95;;;2.30;;
49764;SDS011;35657;51.204;-4.130;2023-05-09T11:16:03;7.00;;;1.73;;
49764;SDS011;35657;51.204;-4.130;2023-05-09T11:18:32;4.53;;;1.58;;
49764;SDS011;35657;51.204;-4.130;2023-05-09T11:21:06;4.95;;;1.85;;
49764;SDS011;35657;51.204;-4.130;2023-05-09T11:23:33;7.28;;;2.13;;
49764;SDS011;35657;51.204;-4.130;2023-05-09T11:26:05;5.13;;;1.63;;
49764;SDS011;35657;51.204;-4.130;2023-05-09T11:28:36;10.63;;;2.45;;
49764;SDS011;35657;51.204;-4.130;2023-05-09T11:31:12;5.55;;;2.17;;
49764;SDS011;35657;51.204;-4.130;2023-05-09T11:33:40;14.75;;;2.17;;
49764;SDS011;35657;51.204;-4.130;2023-05-09T11:39:08;6.28;;;2.05;;
49764;SDS011;35657;51.204;-4.130;2023-05-09T11:41:45;3.88;;;1.70;;
49764;SDS011;35657;51.204;-4.130;2023-05-09T11:44:18;5.30;;;1.70;;
49764;SDS011;35657;51.204;-4.130;2023-05-09T11:46:45;5.97;;;1.80;;
49764;SDS011;35657;51.204;-4.130;2023-05-09T11:49:12;5.00;;;1.40;;
49764;SDS011;35657;51.204;-4.130;2023-05-09T11:51:39;4.30;;;1.50;;
49764;SDS011;35657;51.204;-4.130;2023-05-09T11:54:06;2.88;;;1.42;;
49764;SDS011;35657;51.204;-4.130;2023-05-09T11:56:37;3.30;;;1.13;;
49764;SDS011;35657;51.204;-4.130;2023-05-09T11:59:05;6.18;;;1.42;;
49764;SDS011;35657;51.204;-4.130;2023-05-09T12:01:31;2.38;;;1.15;;
49764;SDS011;35657;51.204;-4.130;2023-05-09T12:03:57;4.53;;;1.20;;
49764;SDS011;35657;51.204;-4.130;2023-05-09T12:06:23;6.22;;;1.90;;
49764;SDS011;35657;51.204;-4.130;2023-05-09T12:08:50;6.45;;;1.67;;
49764;SDS011;35657;51.204;-4.130;2023-05-09T12:11:17;11.30;;;1.60;;
49764;SDS011;35657;51.204;-4.130;2023-05-09T12:13:46;4.05;;;1.02;;
49764;SDS011;35657;51.204;-4.130;2023-05-09T12:16:14;1.88;;;1.00;;
49764;SDS011;35657;51.204;-4.130;2023-05-09T12:18:58;1.90;;;0.95;;
49764;SDS011;35657;51.204;-4.130;2023-05-09T12:21:24;1.40;;;0.85;;
49764;SDS011;35657;51.204;-4.130;2023-05-09T12:23:50;1.27;;;0.73;;
49764;SDS011;35657;51.204;-4.130;2023-05-09T12:26:20;2.20;;;1.10;;
49764;SDS011;35657;51.204;-4.130;2023-05-09T12:28:46;2.47;;;0.90;;
49764;SDS011;35657;51.204;-4.130;2023-05-09T12:31:12;4.40;;;1.75;;
49764;SDS011;35657;51.204;-4.130;2023-05-09T12:33:40;7.22;;;1.60;;
49764;SDS011;35657;51.204;-4.130;2023-05-09T12:36:09;7.70;;;2.25;;
49764;SDS011;35657;51.204;-4.130;2023-05-09T12:38:36;6.00;;;1.95;;
49764;SDS011;35657;51.204;-4.130;2023-05-09T12:41:06;8.07;;;2.00;;
49764;SDS011;35657;51.204;-4.130;2023-05-09T12:43:33;4.07;;;2.42;;
49764;SDS011;35657;51.204;-4.130;2023-05-09T12:46:01;6.68;;;2.53;;
49764;SDS011;35657;51.204;-4.130;2023-05-09T12:48:28;9.60;;;2.22;;
49764;SDS011;35657;51.204;-4.130;2023-05-09T12:50:54;9.35;;;2.42;;
49764;SDS011;35657;51.204;-4.130;2023-05-09T12:53:26;8.07;;;1.75;;
49764;SDS011;35657;51.204;-4.130;2023-05-09T12:56:03;10.38;;;1.98;;
49764;SDS011;35657;51.204;-4.130;2023-05-09T12:58:35;7.07;;;1.90;;
49764;SDS011;35657;51.204;-4.130;2023-05-09T13:01:04;4.65;;;1.95;;
49764;SDS011;35657;51.204;-4.130;2023-05-09T13:03:30;5.03;;;2.20;;
49764;SDS011;35657;51.204;-4.130;2023-05-09T13:06:03;8.38;;;2.42;;
49764;SDS011;35657;51.204;-4.130;2023-05-09T13:08:30;7.93;;;1.77;;
49764;SDS011;35657;51.204;-4.130;2023-05-09T13:10:56;4.63;;;2.03;;
49764;SDS011;35657;51.204;-4.130;2023-05-09T13:13:24;7.82;;;2.53;;
49764;SDS011;35657;51.204;-4.130;2023-05-09T13:15:53;11.43;;;2.65;;
49764;SDS011;35657;51.204;-4.130;2023-05-09T13:18:19;8.73;;;2.20;;
49764;SDS011;35657;51.204;-4.130;2023-05-09T13:20:45;7.68;;;1.85;;
49764;SDS011;35657;51.204;-4.130;2023-05-09T13:23:11;6.30;;;1.83;;
49764;SDS011;35657;51.204;-4.130;2023-05-09T13:25:37;3.25;;;1.40;;
49764;SDS011;35657;51.204;-4.130;2023-05-09T13:28:02;3.42;;;1.48;;
49764;SDS011;35657;51.204;-4.130;2023-05-09T13:30:29;8.55;;;2.20;;
49764;SDS011;35657;51.204;-4.130;2023-05-09T13:32:55;2.20;;;1.27;;
49764;SDS011;35657;51.204;-4.130;2023-05-09T13:35:21;6.78;;;1.55;;
49764;SDS011;35657;51.204;-4.130;2023-05-09T13:37:47;5.00;;;1.30;;
49764;SDS011;35657;51.204;-4.130;2023-05-09T13:40:12;1.23;;;0.75;;
49764;SDS011;35657;51.204;-4.130;2023-05-09T13:42:39;2.65;;;1.35;;
49764;SDS011;35657;51.204;-4.130;2023-05-09T13:45:05;3.92;;;1.15;;
49764;SDS011;35657;51.204;-4.130;2023-05-09T13:47:31;2.05;;;0.68;;
49764;SDS011;35657;51.204;-4.130;2023-05-09T13:49:57;2.90;;;0.50;;
49764;SDS011;35657;51.204;-4.130;2023-05-09T13:52:22;3.75;;;0.57;;
49764;SDS011;35657;51.204;-4.130;2023-05-09T13:54:48;1.50;;;0.80;;
49764;SDS011;35657;51.204;-4.130;2023-05-09T13:57:13;0.75;;;0.60;;
49764;SDS011;35657;51.204;-4.130;2023-05-09T13:59:39;1.20;;;0.50;;
49764;SDS011;35657;51.204;-4.130;2023-05-09T14:02:06;0.70;;;0.40;;
49764;SDS011;35657;51.204;-4.130;2023-05-09T14:04:32;0.80;;;0.40;;
49764;SDS011;35657;51.204;-4.130;2023-05-09T14:06:59;1.15;;;0.43;;
49764;SDS011;35657;51.204;-4.130;2023-05-09T14:09:25;0.43;;;0.38;;
49764;SDS011;35657;51.204;-4.130;2023-05-09T14:11:51;1.80;;;0.60;;
49764;SDS011;35657;51.204;-4.130;2023-05-09T14:14:20;1.38;;;0.57;;
49764;SDS011;35657;51.204;-4.130;2023-05-09T14:16:47;0.40;;;0.30;;
49764;SDS011;35657;51.204;-4.130;2023-05-09T14:19:13;0.63;;;0.40;;
49764;SDS011;35657;51.204;-4.130;2023-05-09T14:21:40;1.35;;;0.57;;
49764;SDS011;35657;51.204;-4.130;2023-05-09T14:24:10;0.80;;;0.45;;
49764;SDS011;35657;51.204;-4.130;2023-05-09T14:26:36;1.60;;;0.70;;
49764;SDS011;35657;51.204;-4.130;2023-05-09T14:29:03;1.88;;;0.70;;
49764;SDS011;35657;51.204;-4.130;2023-05-09T14:31:29;1.83;;;0.43;;
49764;SDS011;35657;51.204;-4.130;2023-05-09T14:33:56;5.03;;;0.93;;
49764;SDS011;35657;51.204;-4.130;2023-05-09T14:36:24;1.33;;;0.47;;
49764;SDS011;35657;51.204;-4.130;2023-05-09T14:38:51;3.53;;;0.40;;
49764;SDS011;35657;51.204;-4.130;2023-05-09T14:41:17;0.68;;;0.30;;
49764;SDS011;35657;51.204;-4.130;2023-05-09T14:43:43;2.38;;;0.93;;
49764;SDS011;35657;51.204;-4.130;2023-05-09T14:46:08;2.38;;;0.60;;